createdAt,value
2016-05-12T00:00:04.570Z,72.91
2016-05-12T00:01:04.604Z,72.43
2016-05-12T00:02:04.731Z,72.14
2016-05-12T00:03:04.719Z,72.05
2016-05-12T00:04:04.737Z,71.98
2016-05-12T00:05:04.724Z,71.37
2016-05-12T00:06:04.727Z,71.37
2016-05-12T00:07:04.729Z,71.95
2016-05-12T00:08:04.747Z,71.09
2016-05-12T00:09:04.766Z,71.47
2016-05-12T00:10:04.768Z,71.57
2016-05-12T00:11:04.741Z,71.28
2016-05-12T00:12:04.774Z,71.57
2016-05-12T00:13:04.777Z,71.28
2016-05-12T00:14:04.780Z,71.28
2016-05-12T00:15:04.782Z,71.47
2016-05-12T00:16:04.801Z,71.57
2016-05-12T00:17:04.771Z,71.76
2016-05-12T00:18:04.774Z,71.47
2016-05-12T00:19:04.777Z,71.66
2016-05-12T00:20:04.780Z,71.66
2016-05-12T00:21:04.626Z,71.76
2016-05-12T00:22:04.801Z,72.05
2016-05-12T00:23:04.647Z,71.66
2016-05-12T00:24:04.807Z,71.76
2016-05-12T00:25:04.794Z,72.24
2016-05-12T00:26:04.812Z,72.72
2016-05-12T00:27:04.798Z,72.91
2016-05-12T00:28:04.801Z,72.81
2016-05-12T00:29:04.835Z,72.63
2016-05-12T00:30:04.838Z,73.3
2016-05-12T00:31:04.684Z,72.97
2016-05-12T00:32:04.828Z,73.26
2016-05-12T00:33:04.831Z,73.26
2016-05-12T00:34:04.849Z,72.88
2016-05-12T00:35:04.836Z,73.07
2016-05-12T00:36:04.855Z,73.74
2016-05-12T00:37:04.857Z,73.93
2016-05-12T00:38:04.844Z,74.12
2016-05-12T00:39:04.847Z,73.55
2016-05-12T00:40:04.866Z,73.74
2016-05-12T00:41:04.852Z,73.83
2016-05-12T00:42:04.871Z,73.7
2016-05-12T00:43:04.857Z,74.27
2016-05-12T00:44:04.876Z,74.08
2016-05-12T00:45:04.878Z,74.76
2016-05-12T00:46:04.896Z,73.9
2016-05-12T00:47:04.869Z,73.32
2016-05-12T00:48:04.730Z,73.8
2016-05-12T00:49:04.874Z,73.7
2016-05-12T00:50:04.892Z,73.99
2016-05-12T00:51:04.879Z,73.99
2016-05-12T00:52:04.881Z,73.8
2016-05-12T00:53:04.900Z,73.99
2016-05-12T00:54:04.903Z,73.9
2016-05-12T00:55:04.906Z,73.99
2016-05-12T00:56:04.736Z,73.51
2016-05-12T00:57:04.895Z,73.8
2016-05-12T00:58:04.898Z,73.9
2016-05-12T00:59:04.760Z,73.7
2016-05-12T01:00:04.903Z,73.8
2016-05-12T01:01:04.764Z,73.7
2016-05-12T01:02:04.909Z,73.99
2016-05-12T01:03:04.912Z,73.51
2016-05-12T01:04:04.914Z,73.22
2016-05-12T01:05:04.916Z,74.08
2016-05-12T01:06:04.935Z,73.7
2016-05-12T01:07:04.922Z,73.9
2016-05-12T01:08:04.941Z,73.7
2016-05-12T01:09:04.944Z,73.61
2016-05-12T01:10:04.930Z,73.41
2016-05-12T01:11:04.949Z,73.61
2016-05-12T01:12:04.951Z,73.7
2016-05-12T01:13:04.969Z,73.66
2016-05-12T01:14:04.941Z,74.08
2016-05-12T01:15:04.944Z,74.08
2016-05-12T01:16:04.947Z,74.18
2016-05-12T01:17:04.965Z,74.18
2016-05-12T01:18:04.967Z,73.99
2016-05-12T01:19:04.813Z,74.57
2016-05-12T01:20:04.988Z,74.57
2016-05-12T01:21:04.975Z,74.37
2016-05-12T01:22:04.979Z,74.37
2016-05-12T01:23:04.981Z,74.57
2016-05-12T01:24:04.984Z,74.37
2016-05-12T01:25:05.002Z,74.37
2016-05-12T01:26:05.004Z,74.66
2016-05-12T01:27:05.007Z,74.66
2016-05-12T01:28:04.994Z,74.66
2016-05-12T01:29:04.981Z,74.66
2016-05-12T01:30:05.000Z,75.04
2016-05-12T01:31:04.987Z,74.85
2016-05-12T01:32:04.864Z,74.85
2016-05-12T01:33:04.851Z,74.85
2016-05-12T01:34:05.010Z,74.85
2016-05-12T01:35:05.013Z,74.76
2016-05-12T01:36:05.016Z,74.76
2016-05-12T01:37:05.019Z,74.85
2016-05-12T01:38:05.022Z,74.72
2016-05-12T01:39:05.039Z,74.91
2016-05-12T01:40:05.042Z,75.2
2016-05-12T01:41:05.044Z,75.1
2016-05-12T01:42:05.048Z,74.91
2016-05-12T01:43:05.035Z,74.82
2016-05-12T01:44:04.880Z,74.91
2016-05-12T01:45:04.883Z,75.29
2016-05-12T01:46:05.371Z,75.48
2016-05-12T01:47:05.046Z,75.68
2016-05-12T01:48:05.048Z,75.58
2016-05-12T01:49:05.051Z,75.68
2016-05-12T01:50:05.054Z,75.68
2016-05-12T01:51:05.056Z,75.77
2016-05-12T01:52:05.059Z,76.06
2016-05-12T01:53:05.077Z,75.58
2016-05-12T01:54:05.079Z,75.68
2016-05-12T01:55:05.082Z,75.87
2016-05-12T01:56:05.085Z,75.77
2016-05-12T01:57:05.088Z,75.87
2016-05-12T01:58:05.075Z,75.87
2016-05-12T01:59:05.078Z,75.87
2016-05-12T02:00:05.081Z,76.25
2016-05-12T02:01:05.083Z,76.35
2016-05-12T02:02:05.085Z,75.58
2016-05-12T02:03:05.088Z,75.77
2016-05-12T02:04:05.092Z,75.39
2016-05-12T02:05:05.094Z,75.39
2016-05-12T02:06:05.096Z,75.29
2016-05-12T02:07:04.958Z,74.62
2016-05-12T02:08:05.102Z,74.97
2016-05-12T02:09:05.105Z,74.58
2016-05-12T02:10:05.107Z,74.33
2016-05-12T02:11:05.110Z,74.43
2016-05-12T02:12:04.956Z,74.72
2016-05-12T02:13:05.130Z,74.05
2016-05-12T02:14:05.118Z,74.15
2016-05-12T02:15:05.121Z,74.01
2016-05-12T02:16:04.966Z,73.95
2016-05-12T02:17:05.127Z,73.86
2016-05-12T02:18:05.129Z,73.76
2016-05-12T02:19:05.131Z,73.57
2016-05-12T02:20:05.135Z,73.47
2016-05-12T02:21:05.137Z,73.47
2016-05-12T02:22:05.124Z,73.72
2016-05-12T02:23:05.142Z,73.54
2016-05-12T02:24:05.145Z,74.01
2016-05-12T02:25:05.023Z,73.54
2016-05-12T02:26:05.151Z,74.11
2016-05-12T02:27:04.996Z,73.44
2016-05-12T02:28:05.156Z,73.54
2016-05-12T02:29:05.158Z,73.44
2016-05-12T02:30:05.145Z,73.82
2016-05-12T02:31:05.164Z,73.63
2016-05-12T02:32:05.151Z,73.82
2016-05-12T02:33:05.154Z,73.54
2016-05-12T02:34:05.172Z,73.54
2016-05-12T02:35:05.174Z,73.72
2016-05-12T02:36:05.178Z,73.91
2016-05-12T02:37:05.180Z,73.54
2016-05-12T02:38:05.182Z,73.91
2016-05-12T02:39:05.186Z,73.91
2016-05-12T02:40:05.203Z,73.82
2016-05-12T02:41:05.191Z,73.91
2016-05-12T02:42:05.194Z,73.82
2016-05-12T02:43:05.243Z,73.91
2016-05-12T02:44:05.199Z,73.91
2016-05-12T02:45:05.201Z,74.58
2016-05-12T02:46:05.188Z,74.4
2016-05-12T02:47:05.191Z,74.3
2016-05-12T02:48:05.194Z,74.3
2016-05-12T02:49:05.227Z,74.11
2016-05-12T02:50:05.215Z,74.77
2016-05-12T02:51:05.202Z,74.68
2016-05-12T02:52:05.221Z,74.58
2016-05-12T02:53:05.051Z,74.58
2016-05-12T02:54:05.226Z,74.97
2016-05-12T02:55:05.212Z,74.97
2016-05-12T02:56:05.231Z,74.68
2016-05-12T02:57:05.233Z,75.26
2016-05-12T02:58:05.236Z,75.83
2016-05-12T02:59:05.224Z,75.54
2016-05-12T03:00:05.070Z,75.54
2016-05-12T03:01:05.229Z,75.73
2016-05-12T03:02:05.231Z,75.73
2016-05-12T03:03:05.250Z,75.45
2016-05-12T03:04:05.236Z,75.45
2016-05-12T03:05:05.240Z,75.54
2016-05-12T03:06:05.242Z,75.26
2016-05-12T03:07:05.245Z,75.16
2016-05-12T03:08:05.247Z,75.35
2016-05-12T03:09:05.094Z,75.22
2016-05-12T03:10:05.253Z,75.41
2016-05-12T03:11:05.100Z,75.73
2016-05-12T03:12:05.258Z,75.73
2016-05-12T03:13:05.261Z,75.73
2016-05-12T03:14:05.264Z,75.41
2016-05-12T03:15:05.266Z,75.41
2016-05-12T03:16:05.113Z,75.51
2016-05-12T03:17:05.271Z,75.51
2016-05-12T03:18:05.275Z,75.41
2016-05-12T03:19:05.277Z,75.51
2016-05-12T03:20:05.280Z,75.41
2016-05-12T03:21:05.283Z,75.51
2016-05-12T03:22:05.285Z,75.31
2016-05-12T03:23:05.287Z,75.6
2016-05-12T03:24:05.134Z,75.51
2016-05-12T03:25:05.152Z,75.41
2016-05-12T03:26:05.296Z,75.51
2016-05-12T03:27:05.298Z,75.41
2016-05-12T03:28:05.301Z,75.6
2016-05-12T03:29:05.148Z,75.41
2016-05-12T03:30:05.322Z,75.54
2016-05-12T03:31:05.325Z,75.73
2016-05-12T03:32:05.312Z,75.6
2016-05-12T03:33:05.299Z,75.31
2016-05-12T03:34:05.301Z,75.73
2016-05-12T03:35:05.320Z,75.45
2016-05-12T03:36:05.306Z,75.54
2016-05-12T03:37:05.309Z,75.73
2016-05-12T03:38:05.312Z,75.54
2016-05-12T03:39:05.175Z,75.93
2016-05-12T03:40:05.318Z,75.54
2016-05-12T03:41:05.180Z,75.64
2016-05-12T03:42:05.338Z,75.54
2016-05-12T03:43:05.325Z,75.16
2016-05-12T03:44:05.360Z,75.83
2016-05-12T03:45:05.347Z,75.83
2016-05-12T03:46:05.365Z,76.02
2016-05-12T03:47:05.352Z,76.4
2016-05-12T03:48:05.183Z,76.69
2016-05-12T03:49:05.358Z,76.31
2016-05-12T03:50:05.344Z,76.69
2016-05-12T03:51:05.191Z,76.79
2016-05-12T03:52:05.350Z,76.6
2016-05-12T03:53:05.353Z,76.69
2016-05-12T03:54:05.355Z,76.5
2016-05-12T03:55:05.218Z,76.6
2016-05-12T03:56:05.220Z,76.5
2016-05-12T03:57:05.363Z,76.31
2016-05-12T03:58:05.382Z,75.64
2016-05-12T03:59:05.385Z,75.45
2016-05-12T04:00:05.388Z,75.73
2016-05-12T04:01:05.234Z,75.64
2016-05-12T04:02:05.237Z,75.64
2016-05-12T04:03:05.379Z,76.02
2016-05-12T04:04:05.414Z,75.64
2016-05-12T04:05:05.401Z,75.54
2016-05-12T04:06:05.404Z,75.54
2016-05-12T04:07:05.406Z,75.45
2016-05-12T04:08:05.409Z,75.93
2016-05-12T04:09:05.395Z,75.64
2016-05-12T04:10:05.398Z,75.73
2016-05-12T04:11:05.401Z,75.45
2016-05-12T04:12:05.248Z,75.54
2016-05-12T04:13:05.406Z,75.83
2016-05-12T04:14:05.409Z,75.64
2016-05-12T04:15:05.411Z,75.54
2016-05-12T04:16:05.414Z,75.73
2016-05-12T04:17:05.277Z,76.12
2016-05-12T04:18:05.404Z,75.68
2016-05-12T04:19:05.408Z,75.54
2016-05-12T04:20:05.285Z,75.77
2016-05-12T04:21:05.413Z,75.77
2016-05-12T04:22:05.430Z,75.48
2016-05-12T04:23:05.433Z,75.01
2016-05-12T04:24:05.435Z,74.52
2016-05-12T04:25:05.282Z,74.62
2016-05-12T04:26:05.285Z,74.24
2016-05-12T04:27:05.429Z,74.43
2016-05-12T04:28:05.431Z,73.76
2016-05-12T04:29:05.449Z,73.66
2016-05-12T04:30:05.437Z,73.57
2016-05-12T04:31:05.284Z,72.8
2016-05-12T04:32:05.457Z,73.86
2016-05-12T04:33:05.460Z,73.47
2016-05-12T04:34:05.463Z,73.38
2016-05-12T04:35:05.497Z,73.66
2016-05-12T04:36:05.484Z,73.57
2016-05-12T04:37:05.470Z,73.19
2016-05-12T04:38:05.474Z,73.61
2016-05-12T04:39:05.493Z,73.22
2016-05-12T04:40:05.479Z,73.22
2016-05-12T04:41:05.481Z,72.64
2016-05-12T04:42:05.484Z,72.84
2016-05-12T04:43:05.486Z,73.22
2016-05-12T04:44:05.490Z,73.22
2016-05-12T04:45:05.509Z,73.03
2016-05-12T04:46:05.511Z,72.94
2016-05-12T04:47:05.498Z,73.03
2016-05-12T04:48:05.500Z,72.45
2016-05-12T04:49:05.503Z,72.64
2016-05-12T04:50:05.521Z,71.59
2016-05-12T04:51:05.509Z,72.17
2016-05-12T04:52:05.511Z,71.69
2016-05-12T04:53:05.514Z,72.36
2016-05-12T04:54:05.516Z,71.78
2016-05-12T04:55:05.519Z,70.83
2016-05-12T04:56:05.522Z,70.64
2016-05-12T04:57:05.525Z,71.11
2016-05-12T04:58:05.527Z,71.5
2016-05-12T04:59:05.546Z,71.11
2016-05-12T05:00:05.533Z,70.64
2016-05-12T05:01:05.535Z,70.92
2016-05-12T05:02:05.554Z,70.57
2016-05-12T05:03:05.556Z,70.73
2016-05-12T05:04:05.576Z,70
2016-05-12T05:05:05.562Z,69.52
2016-05-12T05:06:05.409Z,70
2016-05-12T05:07:05.568Z,70.06
2016-05-12T05:08:05.554Z,70.15
2016-05-12T05:09:05.573Z,69.81
2016-05-12T05:10:05.575Z,69.9
2016-05-12T05:11:05.578Z,69.71
2016-05-12T05:12:05.581Z,69.81
2016-05-12T05:13:05.584Z,69.52
2016-05-12T05:14:05.430Z,69.81
2016-05-12T05:15:05.605Z,70
2016-05-12T05:16:05.591Z,69.62
2016-05-12T05:17:05.594Z,69.42
2016-05-12T05:18:05.597Z,69.81
2016-05-12T05:19:05.600Z,70
2016-05-12T05:20:05.602Z,69.87
2016-05-12T05:21:05.433Z,69.48
2016-05-12T05:22:05.467Z,70.19
2016-05-12T05:23:05.610Z,70.19
2016-05-12T05:24:05.614Z,69.48
2016-05-12T05:25:05.616Z,69.62
2016-05-12T05:26:05.619Z,69.33
2016-05-12T05:27:05.621Z,69.13
2016-05-12T05:28:05.624Z,69.23
2016-05-12T05:29:05.626Z,69.04
2016-05-12T05:30:05.629Z,69.13
2016-05-12T05:31:05.976Z,69.23
2016-05-12T05:32:05.635Z,69.13
2016-05-12T05:33:05.653Z,69.42
2016-05-12T05:34:05.656Z,69.52
2016-05-12T05:35:05.643Z,69.04
2016-05-12T05:36:05.661Z,69.62
2016-05-12T05:37:05.664Z,69.56
2016-05-12T05:38:05.666Z,69.07
2016-05-12T05:39:05.498Z,68.69
2016-05-12T05:40:05.673Z,68.69
2016-05-12T05:41:05.675Z,68.12
2016-05-12T05:42:05.693Z,68.02
2016-05-12T05:43:05.680Z,67.63
2016-05-12T05:44:05.666Z,67.83
2016-05-12T05:45:05.670Z,67.16
2016-05-12T05:46:06.063Z,67.44
2016-05-12T05:47:05.691Z,67.16
2016-05-12T05:48:05.537Z,67.16
2016-05-12T05:49:05.696Z,67.35
2016-05-12T05:50:05.542Z,66.86
2016-05-12T05:51:05.702Z,66.96
2016-05-12T05:52:05.704Z,66.9
2016-05-12T05:53:05.707Z,66.42
2016-05-12T05:54:05.709Z,66.23
2016-05-12T05:55:05.712Z,65.84
2016-05-12T05:56:05.731Z,65.65
2016-05-12T05:57:05.733Z,65.75
2016-05-12T05:58:05.735Z,65.11
2016-05-12T05:59:05.738Z,64.05
2016-05-12T06:00:05.741Z,64.05
2016-05-12T06:01:05.744Z,63.09
2016-05-12T06:02:05.918Z,62.74
2016-05-12T06:03:05.609Z,62.16
2016-05-12T06:04:05.752Z,61.4
2016-05-12T06:05:05.771Z,60.82
2016-05-12T06:06:05.757Z,60.53
2016-05-12T06:07:05.620Z,60.53
2016-05-12T06:08:05.622Z,60.14
2016-05-12T06:09:05.781Z,60.63
2016-05-12T06:10:05.783Z,59.86
2016-05-12T06:11:05.787Z,59.89
2016-05-12T06:12:05.789Z,60.05
2016-05-12T06:13:05.792Z,59.41
2016-05-12T06:14:05.794Z,59.12
2016-05-12T06:15:05.813Z,58.73
2016-05-12T06:16:06.050Z,58.15
2016-05-12T06:17:05.819Z,58.45
2016-05-12T06:18:05.821Z,58.54
2016-05-12T06:19:05.824Z,59.02
2016-05-12T06:20:05.842Z,59.66
2016-05-12T06:21:05.829Z,59.86
2016-05-12T06:22:05.847Z,60.24
2016-05-12T06:23:05.835Z,59.47
2016-05-12T06:24:05.852Z,60.24
2016-05-12T06:25:05.855Z,60.34
2016-05-12T06:26:05.858Z,59.76
2016-05-12T06:27:05.861Z,59.47
2016-05-12T06:28:05.863Z,60.05
2016-05-12T06:29:05.726Z,59.66
2016-05-12T06:30:05.729Z,58.99
2016-05-12T06:31:05.887Z,58.89
2016-05-12T06:32:05.874Z,58.61
2016-05-12T06:33:05.892Z,59.09
2016-05-12T06:34:05.755Z,58.99
2016-05-12T06:35:05.742Z,59.47
2016-05-12T06:36:05.900Z,59.76
2016-05-12T06:37:05.904Z,59.76
2016-05-12T06:38:05.906Z,58.61
2016-05-12T06:39:05.924Z,58.7
2016-05-12T06:40:05.912Z,58.7
2016-05-12T06:41:05.759Z,58.8
2016-05-12T06:42:05.932Z,58.89
2016-05-12T06:43:05.951Z,58.13
2016-05-12T06:44:05.953Z,58.13
2016-05-12T06:45:05.940Z,58.22
2016-05-12T06:46:05.943Z,58.61
2016-05-12T06:47:05.945Z,59.19
2016-05-12T06:48:05.964Z,59.66
2016-05-12T06:49:05.982Z,59.86
2016-05-12T06:50:06.012Z,59.64
2016-05-12T06:51:06.058Z,59.95
2016-05-12T06:52:06.103Z,60.69
2016-05-12T06:53:05.993Z,60.4
2016-05-12T06:54:06.211Z,60.78
2016-05-12T06:55:06.229Z,60.21
2016-05-12T06:56:06.248Z,60.5
2016-05-12T06:57:06.265Z,60.78
2016-05-12T06:58:06.126Z,60.69
2016-05-12T06:59:06.301Z,60.6
2016-05-12T07:00:06.309Z,60.6
2016-05-12T07:01:06.161Z,60.21
2016-05-12T07:02:06.325Z,60.98
2016-05-12T07:03:06.334Z,60.6
2016-05-12T07:04:06.356Z,60.5
2016-05-12T07:05:06.346Z,60.02
2016-05-12T07:06:06.194Z,60.6
2016-05-12T07:07:06.371Z,60.4
2016-05-12T07:08:06.219Z,60.4
2016-05-12T07:09:06.380Z,60.31
2016-05-12T07:10:06.400Z,59.73
2016-05-12T07:11:06.403Z,59.83
2016-05-12T07:12:06.250Z,59.92
2016-05-12T07:13:06.409Z,59.92
2016-05-12T07:14:06.413Z,60.02
2016-05-12T07:15:06.400Z,59.54
2016-05-12T07:16:06.544Z,59.83
2016-05-12T07:17:06.422Z,59.73
2016-05-12T07:18:06.425Z,59.73
2016-05-12T07:19:06.428Z,59.64
2016-05-12T07:20:06.431Z,59.54
2016-05-12T07:21:06.433Z,59.16
2016-05-12T07:22:06.436Z,59.16
2016-05-12T07:23:06.283Z,58.87
2016-05-12T07:24:06.442Z,59.06
2016-05-12T07:25:06.461Z,58.96
2016-05-12T07:26:06.306Z,58.29
2016-05-12T07:27:06.465Z,58.77
2016-05-12T07:28:06.469Z,58.39
2016-05-12T07:29:06.471Z,58.58
2016-05-12T07:30:06.474Z,58.29
2016-05-12T07:31:06.477Z,58.2
2016-05-12T07:32:06.479Z,58.13
2016-05-12T07:33:06.497Z,58.7
2016-05-12T07:34:06.485Z,58.7
2016-05-12T07:35:06.330Z,58.22
2016-05-12T07:36:06.490Z,57.65
2016-05-12T07:37:06.352Z,56.88
2016-05-12T07:38:06.510Z,57.17
2016-05-12T07:39:06.529Z,56.98
2016-05-12T07:40:06.501Z,56.68
2016-05-12T07:41:06.519Z,57
2016-05-12T07:42:06.365Z,56.49
2016-05-12T07:43:06.368Z,56.59
2016-05-12T07:44:06.370Z,56.33
2016-05-12T07:45:06.530Z,56.4
2016-05-12T07:46:06.532Z,55.94
2016-05-12T07:47:06.551Z,55.85
2016-05-12T07:48:06.553Z,55.94
2016-05-12T07:49:06.556Z,55.18
2016-05-12T07:50:06.543Z,55.18
2016-05-12T07:51:06.561Z,55.85
2016-05-12T07:52:06.565Z,55.76
2016-05-12T07:53:06.567Z,55.94
2016-05-12T07:54:06.570Z,55.18
2016-05-12T07:55:06.587Z,55.56
2016-05-12T07:56:06.590Z,55.66
2016-05-12T07:57:06.593Z,55.76
2016-05-12T07:58:06.595Z,56.23
2016-05-12T07:59:06.614Z,55.94
2016-05-12T08:00:06.444Z,55.66
2016-05-12T08:01:06.619Z,56.14
2016-05-12T08:02:06.638Z,55.76
2016-05-12T08:03:06.625Z,56.33
2016-05-12T08:04:06.627Z,56.81
2016-05-12T08:05:06.630Z,57.39
2016-05-12T08:06:06.649Z,57.93
2016-05-12T08:07:06.495Z,58.13
2016-05-12T08:08:06.638Z,58.51
2016-05-12T08:09:06.640Z,59.44
2016-05-12T08:10:06.660Z,60.02
2016-05-12T08:11:06.678Z,61.08
2016-05-12T08:12:06.665Z,61.08
2016-05-12T08:13:06.511Z,61.55
2016-05-12T08:14:06.670Z,61.55
2016-05-12T08:15:06.673Z,62.42
2016-05-12T08:16:06.707Z,62.13
2016-05-12T08:17:06.678Z,62.71
2016-05-12T08:18:06.682Z,62.96
2016-05-12T08:19:06.684Z,63.09
2016-05-12T08:20:06.701Z,62.77
2016-05-12T08:21:06.690Z,62.96
2016-05-12T08:22:06.707Z,63.25
2016-05-12T08:23:06.709Z,63.54
2016-05-12T08:24:06.712Z,63.25
2016-05-12T08:25:06.747Z,63.25
2016-05-12T08:26:06.592Z,64.4
2016-05-12T08:27:06.720Z,64.76
2016-05-12T08:28:06.739Z,65.62
2016-05-12T08:29:06.741Z,65.72
2016-05-12T08:30:06.744Z,65.43
2016-05-12T08:31:06.747Z,65.91
2016-05-12T08:32:06.937Z,66.1
2016-05-12T08:33:06.737Z,66.1
2016-05-12T08:34:06.600Z,66.39
2016-05-12T08:35:06.742Z,66
2016-05-12T08:36:06.761Z,66.49
2016-05-12T08:37:06.779Z,66.19
2016-05-12T08:38:06.766Z,66.77
2016-05-12T08:39:06.769Z,66.77
2016-05-12T08:40:06.787Z,66.86
2016-05-12T08:41:06.790Z,67.44
2016-05-12T08:42:06.635Z,68.21
2016-05-12T08:43:06.779Z,68.12
2016-05-12T08:44:06.782Z,68.69
2016-05-12T08:45:06.816Z,68.46
2016-05-12T08:46:07.146Z,68.46
2016-05-12T08:47:06.821Z,68.66
2016-05-12T08:48:06.793Z,68.75
2016-05-12T08:49:06.826Z,69.13
2016-05-12T08:50:06.829Z,69.23
2016-05-12T08:51:06.832Z,68.56
2016-05-12T08:52:06.834Z,69.04
2016-05-12T08:53:06.837Z,69.13
2016-05-12T08:54:06.825Z,69.62
2016-05-12T08:55:06.842Z,70
2016-05-12T08:56:06.831Z,70.38
2016-05-12T08:57:06.833Z,70.96
2016-05-12T08:58:06.835Z,70.64
2016-05-12T08:59:06.839Z,71.21
2016-05-12T09:00:06.856Z,71.11
2016-05-12T09:01:06.702Z,71.31
2016-05-12T09:02:06.847Z,71.21
2016-05-12T09:03:06.849Z,71.5
2016-05-12T09:04:06.852Z,71.78
2016-05-12T09:05:06.854Z,72.27
2016-05-12T09:06:06.716Z,72.45
2016-05-12T09:07:06.860Z,72.84
2016-05-12T09:08:08.096Z,72.55
2016-05-12T09:09:06.865Z,72.36
2016-05-12T09:10:06.868Z,72.84
2016-05-12T09:11:06.730Z,72.84
2016-05-12T09:12:06.888Z,72.74
2016-05-12T09:13:07.110Z,72.68
2016-05-12T09:14:06.893Z,72.59
2016-05-12T09:15:06.897Z,72.88
2016-05-12T09:16:06.962Z,72.78
2016-05-12T09:17:06.933Z,72.68
2016-05-12T09:18:07.249Z,72.78
2016-05-12T09:19:06.907Z,72.94
2016-05-12T09:20:06.910Z,72.64
2016-05-12T09:21:06.757Z,72.74
2016-05-12T09:22:06.743Z,72.64
2016-05-12T09:23:06.918Z,72.88
2016-05-12T09:24:06.920Z,72.74
2016-05-12T09:25:06.908Z,72.2
2016-05-12T09:26:08.879Z,71.63
2016-05-12T09:27:06.928Z,71.72
2016-05-12T09:28:06.791Z,71.63
2016-05-12T09:29:06.919Z,71.25
2016-05-12T09:30:06.937Z,71.63
2016-05-12T09:31:08.220Z,71.63
2016-05-12T09:32:06.927Z,71.25
2016-05-12T09:33:06.945Z,70.96
2016-05-12T09:34:06.963Z,70.86
2016-05-12T09:35:06.950Z,70.8
2016-05-12T09:36:07.234Z,71.09
2016-05-12T09:37:06.972Z,71.47
2016-05-12T09:38:06.958Z,71.15
2016-05-12T09:39:06.992Z,71.37
2016-05-12T09:40:06.964Z,71.44
2016-05-12T09:41:07.529Z,71.44
2016-05-12T09:42:06.969Z,71.53
2016-05-12T09:43:06.971Z,71.34
2016-05-12T09:44:06.990Z,71.05
2016-05-12T09:45:06.977Z,71.44
2016-05-12T09:46:06.839Z,71.09
2016-05-12T09:47:06.858Z,70.99
2016-05-12T09:48:07.001Z,71.28
2016-05-12T09:49:07.004Z,70.61
2016-05-12T09:50:06.991Z,70.03
2016-05-12T09:51:06.993Z,69.74
2016-05-12T09:52:07.012Z,69.84
2016-05-12T09:53:06.998Z,70.03
2016-05-12T09:54:07.017Z,69.3
2016-05-12T09:55:07.020Z,68.82
2016-05-12T09:56:07.023Z,68.73
2016-05-12T09:57:07.025Z,68.63
2016-05-12T09:58:07.043Z,68.53
2016-05-12T09:59:07.045Z,67.86
2016-05-12T10:00:06.892Z,67.29
2016-05-12T10:01:07.067Z,67.38
2016-05-12T10:02:07.163Z,67.86
2016-05-12T10:03:07.057Z,68.91
2016-05-12T10:04:07.060Z,69.17
2016-05-12T10:05:07.062Z,68.98
2016-05-12T10:06:07.065Z,69.17
2016-05-12T10:07:07.067Z,69.17
2016-05-12T10:08:07.070Z,69.84
2016-05-12T10:09:07.073Z,69.56
2016-05-12T10:10:07.075Z,69.93
2016-05-12T10:11:06.922Z,71.09
2016-05-12T10:12:07.080Z,70.51
2016-05-12T10:13:07.083Z,70.23
2016-05-12T10:14:07.086Z,70.7
2016-05-12T10:15:07.104Z,70.38
2016-05-12T10:16:06.935Z,70.32
2016-05-12T10:17:07.094Z,70.42
2016-05-12T10:18:07.097Z,70.9
2016-05-12T10:19:06.975Z,70.86
2016-05-12T10:20:07.118Z,70.8
2016-05-12T10:21:07.121Z,70.61
2016-05-12T10:22:07.139Z,70.32
2016-05-12T10:23:07.158Z,69.93
2016-05-12T10:24:06.973Z,70.03
2016-05-12T10:25:07.148Z,70.48
2016-05-12T10:26:07.150Z,71.05
2016-05-12T10:27:07.168Z,70.67
2016-05-12T10:28:07.328Z,70.86
2016-05-12T10:29:07.158Z,71.05
2016-05-12T10:30:07.145Z,71.72
2016-05-12T10:31:06.991Z,71.63
2016-05-12T10:32:07.166Z,71.82
2016-05-12T10:33:07.185Z,72.11
2016-05-12T10:34:07.186Z,73.03
2016-05-12T10:35:07.017Z,73.45
2016-05-12T10:36:07.177Z,73.45
2016-05-12T10:37:07.195Z,73.35
2016-05-12T10:38:07.183Z,73.16
2016-05-12T10:39:07.169Z,73.35
2016-05-12T10:40:07.188Z,73.26
2016-05-12T10:41:07.190Z,73.26
2016-05-12T10:42:07.036Z,73.55
2016-05-12T10:43:07.196Z,73.07
2016-05-12T10:44:07.183Z,72.97
2016-05-12T10:45:07.201Z,72.88
2016-05-12T10:46:07.204Z,72.88
2016-05-12T10:47:07.394Z,72.97
2016-05-12T10:48:07.225Z,72.88
2016-05-12T10:49:07.227Z,73.22
2016-05-12T10:50:07.245Z,73.13
2016-05-12T10:51:07.233Z,73.13
2016-05-12T10:52:07.236Z,73.16
2016-05-12T10:53:07.223Z,72.78
2016-05-12T10:54:07.241Z,73.16
2016-05-12T10:55:07.259Z,72.74
2016-05-12T10:56:07.090Z,72.49
2016-05-12T10:57:07.265Z,72.49
2016-05-12T10:58:07.237Z,72.68
2016-05-12T10:59:07.254Z,72.78
2016-05-12T11:00:07.256Z,72.94
2016-05-12T11:01:07.259Z,73.13
2016-05-12T11:02:07.279Z,73.13
2016-05-12T11:03:07.108Z,73.41
2016-05-12T11:04:07.252Z,73.13
2016-05-12T11:05:07.270Z,73.22
2016-05-12T11:06:07.258Z,73.41
2016-05-12T11:07:07.261Z,73.41
2016-05-12T11:08:07.264Z,73.41
2016-05-12T11:09:07.265Z,74.08
2016-05-12T11:10:07.284Z,73.99
2016-05-12T11:11:07.272Z,73.9
2016-05-12T11:12:07.321Z,73.03
2016-05-12T11:13:07.292Z,74.18
2016-05-12T11:14:07.294Z,73.13
2016-05-12T11:15:07.297Z,73.99
2016-05-12T11:16:07.285Z,73.09
2016-05-12T11:17:07.302Z,73.57
2016-05-12T11:18:07.133Z,74.15
2016-05-12T11:19:07.308Z,74.43
2016-05-12T11:20:07.310Z,75.01
2016-05-12T11:21:07.298Z,74.91
2016-05-12T11:22:07.316Z,75.48
2016-05-12T11:23:07.146Z,75.58
2016-05-12T11:24:07.321Z,75.77
2016-05-12T11:25:07.309Z,75.48
2016-05-12T11:26:07.312Z,76.06
2016-05-12T11:27:07.329Z,75.77
2016-05-12T11:28:07.332Z,75.87
2016-05-12T11:29:07.335Z,76.44
2016-05-12T11:30:07.182Z,75.48
2016-05-12T11:31:07.168Z,75.87
2016-05-12T11:32:07.327Z,75.48
2016-05-12T11:33:07.331Z,76.35
2016-05-12T11:34:07.505Z,76.15
2016-05-12T11:35:07.335Z,76.64
2016-05-12T11:36:07.370Z,76.06
2016-05-12T11:37:07.716Z,76.54
2016-05-12T11:38:07.359Z,76.82
2016-05-12T11:39:07.361Z,77.11
2016-05-12T11:40:07.365Z,76.79
2016-05-12T11:41:07.367Z,76.98
2016-05-12T11:42:07.354Z,77.55
2016-05-12T11:43:07.358Z,77.55
2016-05-12T11:44:07.360Z,77.55
2016-05-12T11:45:07.363Z,77.46
2016-05-12T11:46:07.366Z,77.84
2016-05-12T11:47:07.368Z,78.03
2016-05-12T11:48:07.371Z,77.84
2016-05-12T11:49:07.216Z,78.42
2016-05-12T11:50:07.361Z,78.42
2016-05-12T11:51:07.379Z,77.84
2016-05-12T11:52:07.256Z,78.8
2016-05-12T11:53:07.227Z,78.51
2016-05-12T11:54:07.246Z,78.8
2016-05-12T11:55:07.390Z,78.7
2016-05-12T11:56:07.235Z,79.05
2016-05-12T11:57:07.395Z,79.66
2016-05-12T11:58:07.382Z,79.95
2016-05-12T11:59:07.400Z,80.19
2016-05-12T12:00:07.403Z,80.96
2016-05-12T12:01:07.406Z,81.73
2016-05-12T12:02:07.409Z,80.96
2016-05-12T12:03:07.396Z,80.62
2016-05-12T12:04:07.242Z,80.67
2016-05-12T12:05:07.416Z,80.58
2016-05-12T12:06:07.262Z,80.19
2016-05-12T12:07:07.406Z,80.77
2016-05-12T12:08:07.424Z,80.24
2016-05-12T12:09:07.428Z,80.29
2016-05-12T12:10:07.414Z,79.66
2016-05-12T12:11:07.432Z,79.57
2016-05-12T12:12:07.419Z,80.04
2016-05-12T12:13:07.438Z,79.47
2016-05-12T12:14:07.440Z,79.47
2016-05-12T12:15:07.458Z,79.37
2016-05-12T12:16:07.446Z,79.28
2016-05-12T12:17:07.292Z,79.57
2016-05-12T12:18:07.436Z,79.47
2016-05-12T12:19:07.454Z,79.66
2016-05-12T12:20:07.332Z,79.47
2016-05-12T12:21:07.443Z,79.08
2016-05-12T12:22:07.447Z,79.18
2016-05-12T12:23:07.465Z,80.14
2016-05-12T12:24:07.468Z,79.85
2016-05-12T12:25:07.438Z,80.9
2016-05-12T12:26:07.457Z,80.81
2016-05-12T12:27:07.476Z,79.66
2016-05-12T12:28:07.446Z,79.85
2016-05-12T12:29:07.465Z,80.71
2016-05-12T12:30:07.467Z,81
2016-05-12T12:31:07.454Z,82.24
2016-05-12T12:32:07.630Z,81.96
2016-05-12T12:33:07.476Z,82.53
2016-05-12T12:34:07.462Z,81.86
2016-05-12T12:35:07.481Z,82.53
2016-05-12T12:36:07.500Z,82.92
2016-05-12T12:37:07.487Z,83.49
2016-05-12T12:38:07.490Z,83.97
2016-05-12T12:39:07.508Z,82.73
2016-05-12T12:40:07.495Z,83.78
2016-05-12T12:41:07.482Z,84.26
2016-05-12T12:42:07.344Z,83.97
2016-05-12T12:43:07.487Z,83.39
2016-05-12T12:44:07.489Z,83.3
2016-05-12T12:45:07.524Z,84.26
2016-05-12T12:46:07.370Z,84.26
2016-05-12T12:47:07.497Z,83.05
2016-05-12T12:48:07.516Z,84.01
2016-05-12T12:49:07.518Z,84.01
2016-05-12T12:50:07.522Z,82.76
2016-05-12T12:51:07.524Z,82.76
2016-05-12T12:52:07.511Z,80.79
2016-05-12T12:53:07.514Z,81.95
2016-05-12T12:54:07.532Z,80.12
2016-05-12T12:55:07.535Z,80.12